Terminal Aerodrome Forecast
Issued by NWS Twin Cities, MN

Home | Current Version | Previous Version | Graphics & Text | Print | Product List | Glossary On
Versions: 1 2 3 4 5 6 7 8 9 10 11 12 13 14 15 16 17 18 19 20 21 22 23 24 25 26 27 28
000
FTUS43 KMPX 141739
TAFMSP
TAF
KMSP 141739Z 1418/1524 16010KT 4SM -SHSN OVC030
     FM142100 16011KT 1 1/2SM -SN BR OVC015
      TEMPO 1421/1424 3/4SM -SN BR OVC008
     FM150400 31013G21KT P6SM OVC020
     FM151800 32015G24KT P6SM OVC035=

USA.gov is the U.S. government's official web portal to all federal, state and local government web resources and services.